Impacts TAF Board
For situational awareness. Not to be used for flight planning purposes.
IDs:

KPNS - Pensacola Intl, FL, US

Issued at 0038 UTC 06 Dec 2020
Updated at 0225 UTC 06 Dec 2020
Potential Impact None Slight Moderate High
Time0153Z 06/03Z 06/04Z 06/05Z 06/06Z 06/07Z 06/08Z 06/09Z 06/10Z 06/11Z 06/12Z 06/13Z 06/14Z 06/15Z>>
Type OBS PRVL PRVL PRVL PRVL PRVL PRVL PRVL PRVL PRVL PRVL PRVL PRVL PRVL
VIS 10 >6 >6 >6 >6 >6 >6 >6 >6 >6 >6 >6 >6 >6
CIG -- 250 250 250 250 250 250 250 250 250 250 250 250 250
Cover CLR BKN BKN BKN BKN BKN BKN BKN BKN BKN BKN BKN BKN BKN
FltCat VFR VFR VFR VFR VFR VFR VFR VFR VFR VFR VFR VFR VFR VFR
WX -- -- -- -- -- -- -- -- -- -- -- -- -- --
WDir 280 VRB VRB VRB VRB VRB VRB VRB VRB VRB VRB VRB VRB VRB
WSpd 5 3 3 3 3 3 3 3 3 3 3 3 3 3
WGst -- -- -- -- -- -- -- -- -- -- -- -- -- --
Raw TAF
KPNS 060038Z 0601/0624 VRB03KT P6SM BKN250
  FM061700 34005KT P6SM BKN120


Raw METAR
KPNS 060153Z 28005KT 10SM CLR 13/07 A3014 RMK AO2 RAE07 SLP209 P0000 T01280067
KPNS 060053Z 31004KT 10SM -RA CLR 12/07 A3013 RMK AO2 RAB24E33B50 SLP204 P0000 T01220072
KPNS 052353Z 00000KT 10SM CLR 13/07 A3011 RMK AO2 RAE04B23E32 SLP199 P0000 60000 T01330067 10178 20122 55004

METAR Board
Radar Display
Forecast Discussion
For situational awareness. Not to be used for flight planning purposes.